Impacts METAR Board
IDs:

KSAT - San Antonio Intl, TX, US

Updated at: 0100 UTC 01 Nov 2020
Potential Impact None Slight Moderate High
Time 31/13Z 31/14Z 31/15Z 31/16Z 31/17Z 31/18Z 31/19Z 31/20Z 31/21Z 31/22Z 31/23Z 01/00Z 01/01Z
Temp41 48 58 63 68 70 73 75 75 76 76 72 66
Dewpt34 36 41 41 40 39 40 40 37 38 39 40 41
Altim30.22 30.23 30.25 30.25 30.23 30.21 30.17 30.13 30.12 30.10 30.09 30.11 30.13
VIS10 10 10 10 10 10 10 10 10 10 10 10 10
CIG-- -- -- -- -- -- -- -- -- -- -- -- --
CoverCLRCLRFEWFEWFEWFEWFEWFEWFEWFEWFEWSCTSCT
FltCatVFRVFRVFRVFRVFRVFRVFRVFRVFRVFRVFRVFRVFR
WX--------------------------
WDir300310019017022000170190160180160
WSpd5 3 0 6 6 7 4 6 4 5 5 4 4
WGst-- -- -- -- -- -- -- -- -- -- -- -- --
Raw hourly METARs
KSAT 311251Z 30005KT 10SM CLR 05/01 A3022 RMK AO2 SLP224 T00500011
KSAT 311351Z 31003KT 10SM CLR 09/02 A3023 RMK AO2 SLP226 T00890022
KSAT 311451Z 00000KT 10SM FEW250 14/05 A3025 RMK AO2 SLP231 T01440050 53010
KSAT 311551Z 19006KT 10SM FEW250 17/05 A3025 RMK AO2 SLP231 T01720050
KSAT 311651Z 17006KT 10SM FEW250 20/04 A3023 RMK AO2 SLP226 T02000044
KSAT 311751Z 22007KT 10SM FEW250 21/04 A3021 RMK AO2 SLP219 T02110039 10211 20050 58012
KSAT 311851Z VRB04KT 10SM FEW250 23/04 A3017 RMK AO2 SLP205 T02280044
KSAT 311951Z VRB06KT 10SM FEW250 24/04 A3013 RMK AO2 SLP192 T02390044
KSAT 312051Z 17004KT 10SM FEW250 24/03 A3012 RMK AO2 SLP186 T02390028 56032
KSAT 312151Z 19005KT 10SM FEW250 24/03 A3010 RMK AO2 SLP182 T02440033
KSAT 312251Z 16005KT 10SM FEW250 24/04 A3009 RMK AO2 SLP179 T02440039
KSAT 312351Z 18004KT 10SM SCT250 22/04 A3011 RMK AO2 SLP183 T02220044 10250 20206 55003
KSAT 010051Z 16004KT 10SM SCT250 19/05 A3013 RMK AO2 SLP193 T01890050